Blue Ridge Highway — 3FEY4 — position and weather

sailwx.info

Track history (hours):
 
Tides and Currents Weather Stations Pressure Air Temp Water Temp Dewpoint Dewpoint Depression Visibility Wind Speed Wind Dir Waves Ship Positions

Blue Ridge Highway

Last reported at 2015-May-05 11:32 UTC. Time now 2015-May-05 12:15 UTC.
Position N 51°20' E 002°34'.

Length 180 m; draft 8.4 m.

Type: Cargo ship. MMSI: 355558000.

Date/timePositionNaut miles runAvg speedWind from/ knotsBaromVisibWave heightAir tempDewpointWater temp
2015-May-05 11:32N 51°20' E 002°34'0 0.1
2015-May-05 10:32N 51°20' E 002°34'0 0.2
2015-May-05 09:32N 51°20' E 002°33'1 1.3
2015-May-05 08:34N 51°22' E 002°34'9 9.3
2015-May-05 07:34N 51°19' E 002°20'1515.3
2015-May-05 06:34N 51°11' E 001°58'1515.4
2015-May-05 05:34N 51°01' E 001°39'1616.3
2015-May-05 04:34N 50°48' E 001°25'1616.0
2015-May-05 03:33N 50°35' E 001°09'1716.1
2015-May-05 02:30N 50°27' E 000°46'1616.3
2015-May-05 01:30N 50°22' E 000°22'76315.9
2015-May-03 01:23N 39°53' W 009°50'3117.1
2015-May-02 23:33N 39°22' W 009°51'1717.5
2015-May-02 22:33N 39°04' W 009°50'1717.4
2015-May-02 21:33N 38°47' W 009°50'1716.8
2015-May-02 20:33N 38°30' W 009°46'1716.6
2015-May-02 19:33N 38°14' W 009°42'1716.5
2015-May-02 18:33N 37°58' W 009°38'1716.6
2015-May-02 17:33N 37°42' W 009°33'1716.7
2015-May-02 16:33N 37°25' W 009°28'1717.1
2015-May-02 15:33N 37°09' W 009°23'1716.6
2015-May-02 14:33N 36°53' W 009°18'1616.3
2015-May-02 13:33N 36°43' W 009°01'1716.6
2015-May-02 12:33N 36°38' W 008°42'1716.9
2015-May-02 11:33N 36°32' W 008°22'1717.0
2015-May-02 10:33N 36°27' W 008°02'1717.0
2015-May-02 09:33N 36°22' W 007°42'1717.3
2015-May-02 08:33N 36°16' W 007°21'3617.7
2015-May-02 06:33N 36°05' W 006°40'6415.9
2015-May-02 02:33N 36°00' W 005°21'8416.4
2015-May-01 21:28N 36°15' W 003°39'1617.3
2015-May-01 20:33N 36°18' W 003°20'1717.5
2015-May-01 19:33N 36°21' W 002°59'1717.2
2015-May-01 18:33N 36°23' W 002°38'1717.0
2015-May-01 17:33N 36°25' W 002°17'2016.6
2015-May-01 16:21N 36°31' W 001°53'1317.0
2015-May-01 15:33N 36°40' W 001°40'1716.8
2015-May-01 14:33N 36°50' W 001°24'1716.6
2015-May-01 13:33N 37°01' W 001°08'1717.2
2015-May-01 12:33N 37°12' W 000°51'1717.2
2015-May-01 11:33N 37°22' W 000°34'1717.3
2015-May-01 10:33N 37°34' W 000°18'1717.4
2015-May-01 09:33N 37°49' W 000°06'1716.8
2015-May-01 08:33N 38°02' E 000°06'1716.9
2015-May-01 07:33N 38°16' E 000°19'1717.2
2015-May-01 06:33N 38°30' E 000°31'1716.9
2015-May-01 05:33N 38°45' E 000°42'1717.3
2015-May-01 04:33N 39°01' E 000°51'1917.2
2015-May-01 03:25N 39°19' E 001°02'2116.6
2015-May-01 02:09N 39°38' E 001°12'1016.1
2015-May-01 01:33N 39°47' E 001°18'1717.0
2015-May-01 00:33N 40°02' E 001°27'1717.2
2015-Apr-30 23:33N 40°18' E 001°36'1716.9
2015-Apr-30 22:33N 40°33' E 001°45'1717.0
2015-Apr-30 21:33N 40°49' E 001°54'1717.6
2015-Apr-30 20:33N 41°05' E 002°04'1515.1
2015-Apr-30 19:33N 41°19' E 002°10'1 0.9
2015-Apr-30 18:19N 41°20' E 002°09'0 0.0
2015-Apr-30 17:28N 41°20' E 002°09'0 0.0
2015-Apr-30 16:13N 41°20' E 002°09'0 0.0
2015-Apr-30 15:31N 41°20' E 002°09'0 0.0
2015-Apr-30 14:31N 41°20' E 002°09'0 0.0
2015-Apr-30 12:25N 41°20' E 002°09'0 0.0
2015-Apr-30 08:25N 41°20' E 002°09'0 0.0
2015-Apr-30 07:31N 41°20' E 002°09'1 0.1
2015-Apr-30 03:25N 41°20' E 002°09'18 9.2
2015-Apr-30 01:27N 41°09' E 002°28'1314.4
2015-Apr-30 00:33N 41°03' E 002°44'1414.2
2015-Apr-29 23:33N 40°56' E 002°60'1414.6
2015-Apr-29 22:34N 40°48' E 003°16'1310.0
2015-Apr-29 21:18N 40°42' E 003°31'1 0.6
2015-Apr-29 20:30N 40°43' E 003°31'0 0.4
2015-Apr-29 19:24N 40°43' E 003°32'0 0.4
2015-Apr-29 18:24N 40°43' E 003°32'1 0.6
2015-Apr-29 17:24N 40°44' E 003°31'1 1.5
2015-Apr-29 16:27N 40°45' E 003°30'2 2.1
2015-Apr-29 15:30N 40°46' E 003°28'2 2.5
2015-Apr-29 14:30N 40°47' E 003°25'3 2.3
2015-Apr-29 13:18N 40°49' E 003°22'2 2.1
2015-Apr-29 12:33N 40°49' E 003°20'2 1.7
2015-Apr-29 11:30N 40°50' E 003°18'1 1.3
2015-Apr-29 10:30N 40°49' E 003°16'1 1.4
2015-Apr-29 09:30N 40°48' E 003°17'1 1.4
2015-Apr-29 08:33N 40°47' E 003°17'1 1.4
2015-Apr-29 07:33N 40°45' E 003°18'2 1.3
2015-Apr-29 06:21N 40°44' E 003°18'1 1.2
2015-Apr-29 05:30N 40°43' E 003°19'1 0.8
2015-Apr-29 04:30N 40°42' E 003°19'1 0.7
2015-Apr-29 03:30N 40°42' E 003°20'1 0.7
2015-Apr-29 02:33N 40°42' E 003°21'1 0.9
2015-Apr-29 01:33N 40°41' E 003°22'1 0.8
2015-Apr-29 00:33N 40°42' E 003°23'1 0.8
2015-Apr-28 23:33N 40°42' E 003°24'1 0.7
2015-Apr-28 22:33N 40°43' E 003°24'1 0.9
2015-Apr-28 21:30N 40°44' E 003°24'1 0.8
2015-Apr-28 20:33N 40°44' E 003°24'1 0.6
2015-Apr-28 19:33N 40°45' E 003°23'0 0.3
2015-Apr-28 18:33N 40°45' E 003°23'0 0.2
2015-Apr-28 17:33N 40°45' E 003°23'0 0.1
2015-Apr-28 16:18N 40°45' E 003°23'0 0.3
2015-Apr-28 15:24N 40°45' E 003°22'4 4.5
2015-Apr-28 14:28N 40°42' E 003°27'1 1.1
2015-Apr-28 13:31N 40°43' E 003°25'2 1.5
2015-Apr-28 12:25N 40°44' E 003°24'2 1.9
2015-Apr-28 11:10N 40°47' E 003°23'2 2.3
2015-Apr-28 10:28N 40°48' E 003°22'2 2.3
2015-Apr-28 09:28N 40°50' E 003°21'2 2.3
2015-Apr-28 08:28N 40°53' E 003°20'2 2.0
2015-Apr-28 07:28N 40°54' E 003°20'2 2.3
2015-Apr-28 06:25N 40°57' E 003°21'2 2.4
2015-Apr-28 05:31N 40°59' E 003°21'2 2.3
2015-Apr-28 04:29N 41°01' E 003°21'3 2.4
2015-Apr-28 03:19N 41°04' E 003°21'2 2.5
2015-Apr-28 02:22N 41°06' E 003°21'2 2.4
2015-Apr-28 01:32N 41°08' E 003°20'3 2.6
2015-Apr-28 00:32N 41°11' E 003°18'3 2.7
2015-Apr-27 23:27N 41°13' E 003°16'1 1.6
2015-Apr-27 22:32N 41°14' E 003°15'1 0.4
2015-Apr-27 20:32N 41°13' E 003°15'0 0.4
2015-Apr-27 19:32N 41°13' E 003°15'0 0.4
2015-Apr-27 18:32N 41°13' E 003°15'1 1.0
2015-Apr-27 17:32N 41°13' E 003°14'1 1.3
2015-Apr-27 16:32N 41°12' E 003°13'1 1.0
2015-Apr-27 15:32N 41°11' E 003°12'1 0.9
2015-Apr-27 14:33N 41°11' E 003°11'1 1.2
2015-Apr-27 13:33N 41°11' E 003°09'1 0.6
2015-Apr-27 12:33N 41°10' E 003°09'6 5.9
2015-Apr-27 11:33N 41°16' E 003°11'7 6.3
2015-Apr-27 10:28N 41°22' E 003°13'5 0.6
2015-Apr-27 02:31N 41°17' E 003°12'2 1.2
2015-Apr-27 01:07N 41°16' E 003°13'1 1.7
2015-Apr-27 00:28N 41°14' E 003°13'1 1.2
2015-Apr-26 23:31N 41°13' E 003°13'1 1.2
2015-Apr-26 22:31N 41°12' E 003°14'2 1.6
2015-Apr-26 21:13N 41°10' E 003°14'1 2.0
2015-Apr-26 20:31N 41°09' E 003°15'1 1.5
2015-Apr-26 19:31N 41°07' E 003°15'1 1.2
2015-Apr-26 18:25N 41°06' E 003°15'1 0.8
2015-Apr-26 17:31N 41°05' E 003°15'1 0.6
2015-Apr-26 16:31N 41°05' E 003°15'1 1.1
2015-Apr-26 15:31N 41°04' E 003°14'1 1.2
2015-Apr-26 14:31N 41°03' E 003°13'1 1.0
2015-Apr-26 13:25N 41°02' E 003°12'1 1.0
2015-Apr-26 12:31N 41°01' E 003°11'1 0.8
2015-Apr-26 11:31N 41°00' E 003°11'1 1.0
2015-Apr-26 10:31N 40°60' E 003°12'1 1.3
2015-Apr-26 09:25N 40°59' E 003°14'1 1.4
2015-Apr-26 08:31N 40°58' E 003°15'1 1.3
2015-Apr-26 07:31N 40°56' E 003°15'1 1.2
2015-Apr-26 06:31N 40°55' E 003°15'2 1.2
2015-Apr-26 05:13N 40°54' E 003°16'1 1.1
2015-Apr-26 04:25N 40°53' E 003°16'1 0.7
2015-Apr-26 03:31N 40°52' E 003°16'0 0.5
2015-Apr-26 02:31N 40°52' E 003°16'0 0.4
2015-Apr-26 01:25N 40°51' E 003°16'0 0.4
2015-Apr-26 00:31N 40°51' E 003°16'0 0.4
2015-Apr-25 23:25N 40°51' E 003°17'0 0.2
2015-Apr-25 22:25N 40°50' E 003°17'0 0.1
2015-Apr-25 21:16N 40°50' E 003°16'0 0.3
2015-Apr-25 20:31N 40°50' E 003°16'1 0.6
2015-Apr-25 19:25N 40°50' E 003°15'1 1.2
2015-Apr-25 18:31N 40°50' E 003°14'2 1.5
2015-Apr-25 17:19N 40°50' E 003°11'1 1.7
2015-Apr-25 16:31N 40°50' E 003°10'2 1.8
2015-Apr-25 15:31N 40°51' E 003°08'2 2.5
2015-Apr-25 14:33N 40°53' E 003°05'2 1.8
2015-Apr-25 13:16N 40°54' E 003°02'2 1.9
2015-Apr-25 12:28N 40°54' E 003°00'  
Track history (hours):
 
Tides and Currents Weather Stations Pressure Air Temp Water Temp Dewpoint Dewpoint Depression Visibility Wind Speed Wind Dir Waves Ship Positions

Blue Ridge Highway

Last reported at 2015-May-05 11:32 UTC. Time now 2015-May-05 12:15 UTC.
Position N 51°20' E 002°34'.

Length 180 m; draft 8.4 m.

Type: Cargo ship. MMSI: 355558000.

Date/timePositionNaut miles runAvg speedWind from/ knotsBaromVisibWave heightAir tempDewpointWater temp
2015-May-05 11:32N 51°20' E 002°34'0 0.1
2015-May-05 10:32N 51°20' E 002°34'0 0.2
2015-May-05 09:32N 51°20' E 002°33'1 1.3
2015-May-05 08:34N 51°22' E 002°34'9 9.3
2015-May-05 07:34N 51°19' E 002°20'1515.3
2015-May-05 06:34N 51°11' E 001°58'1515.4
2015-May-05 05:34N 51°01' E 001°39'1616.3
2015-May-05 04:34N 50°48' E 001°25'1616.0
2015-May-05 03:33N 50°35' E 001°09'1716.1
2015-May-05 02:30N 50°27' E 000°46'1616.3
2015-May-05 01:30N 50°22' E 000°22'76315.9
2015-May-03 01:23N 39°53' W 009°50'3117.1
2015-May-02 23:33N 39°22' W 009°51'1717.5
2015-May-02 22:33N 39°04' W 009°50'1717.4
2015-May-02 21:33N 38°47' W 009°50'1716.8
2015-May-02 20:33N 38°30' W 009°46'1716.6
2015-May-02 19:33N 38°14' W 009°42'1716.5
2015-May-02 18:33N 37°58' W 009°38'1716.6
2015-May-02 17:33N 37°42' W 009°33'1716.7
2015-May-02 16:33N 37°25' W 009°28'1717.1
2015-May-02 15:33N 37°09' W 009°23'1716.6
2015-May-02 14:33N 36°53' W 009°18'1616.3
2015-May-02 13:33N 36°43' W 009°01'1716.6
2015-May-02 12:33N 36°38' W 008°42'1716.9
2015-May-02 11:33N 36°32' W 008°22'1717.0
2015-May-02 10:33N 36°27' W 008°02'1717.0
2015-May-02 09:33N 36°22' W 007°42'1717.3
2015-May-02 08:33N 36°16' W 007°21'3617.7
2015-May-02 06:33N 36°05' W 006°40'6415.9
2015-May-02 02:33N 36°00' W 005°21'8416.4
2015-May-01 21:28N 36°15' W 003°39'1617.3
2015-May-01 20:33N 36°18' W 003°20'1717.5
2015-May-01 19:33N 36°21' W 002°59'1717.2
2015-May-01 18:33N 36°23' W 002°38'1717.0
2015-May-01 17:33N 36°25' W 002°17'2016.6
2015-May-01 16:21N 36°31' W 001°53'1317.0
2015-May-01 15:33N 36°40' W 001°40'1716.8
2015-May-01 14:33N 36°50' W 001°24'1716.6
2015-May-01 13:33N 37°01' W 001°08'1717.2
2015-May-01 12:33N 37°12' W 000°51'1717.2
2015-May-01 11:33N 37°22' W 000°34'1717.3
2015-May-01 10:33N 37°34' W 000°18'1717.4
2015-May-01 09:33N 37°49' W 000°06'1716.8
2015-May-01 08:33N 38°02' E 000°06'1716.9
2015-May-01 07:33N 38°16' E 000°19'1717.2
2015-May-01 06:33N 38°30' E 000°31'1716.9
2015-May-01 05:33N 38°45' E 000°42'1717.3
2015-May-01 04:33N 39°01' E 000°51'1917.2
2015-May-01 03:25N 39°19' E 001°02'2116.6
2015-May-01 02:09N 39°38' E 001°12'1016.1
2015-May-01 01:33N 39°47' E 001°18'1717.0
2015-May-01 00:33N 40°02' E 001°27'1717.2
2015-Apr-30 23:33N 40°18' E 001°36'1716.9
2015-Apr-30 22:33N 40°33' E 001°45'1717.0
2015-Apr-30 21:33N 40°49' E 001°54'1717.6
2015-Apr-30 20:33N 41°05' E 002°04'1515.1
2015-Apr-30 19:33N 41°19' E 002°10'1 0.9
2015-Apr-30 18:19N 41°20' E 002°09'0 0.0
2015-Apr-30 17:28N 41°20' E 002°09'0 0.0
2015-Apr-30 16:13N 41°20' E 002°09'0 0.0
2015-Apr-30 15:31N 41°20' E 002°09'0 0.0
2015-Apr-30 14:31N 41°20' E 002°09'0 0.0
2015-Apr-30 12:25N 41°20' E 002°09'0 0.0
2015-Apr-30 08:25N 41°20' E 002°09'0 0.0
2015-Apr-30 07:31N 41°20' E 002°09'1 0.1
2015-Apr-30 03:25N 41°20' E 002°09'18 9.2
2015-Apr-30 01:27N 41°09' E 002°28'1314.4
2015-Apr-30 00:33N 41°03' E 002°44'1414.2
2015-Apr-29 23:33N 40°56' E 002°60'1414.6
2015-Apr-29 22:34N 40°48' E 003°16'1310.0
2015-Apr-29 21:18N 40°42' E 003°31'1 0.6
2015-Apr-29 20:30N 40°43' E 003°31'0 0.4
2015-Apr-29 19:24N 40°43' E 003°32'0 0.4
2015-Apr-29 18:24N 40°43' E 003°32'1 0.6
2015-Apr-29 17:24N 40°44' E 003°31'1 1.5
2015-Apr-29 16:27N 40°45' E 003°30'2 2.1
2015-Apr-29 15:30N 40°46' E 003°28'2 2.5
2015-Apr-29 14:30N 40°47' E 003°25'3 2.3
2015-Apr-29 13:18N 40°49' E 003°22'2 2.1
2015-Apr-29 12:33N 40°49' E 003°20'2 1.7
2015-Apr-29 11:30N 40°50' E 003°18'1 1.3
2015-Apr-29 10:30N 40°49' E 003°16'1 1.4
2015-Apr-29 09:30N 40°48' E 003°17'1 1.4
2015-Apr-29 08:33N 40°47' E 003°17'1 1.4
2015-Apr-29 07:33N 40°45' E 003°18'2 1.3
2015-Apr-29 06:21N 40°44' E 003°18'1 1.2
2015-Apr-29 05:30N 40°43' E 003°19'1 0.8
2015-Apr-29 04:30N 40°42' E 003°19'1 0.7
2015-Apr-29 03:30N 40°42' E 003°20'1 0.7
2015-Apr-29 02:33N 40°42' E 003°21'1 0.9
2015-Apr-29 01:33N 40°41' E 003°22'1 0.8
2015-Apr-29 00:33N 40°42' E 003°23'1 0.8
2015-Apr-28 23:33N 40°42' E 003°24'1 0.7
2015-Apr-28 22:33N 40°43' E 003°24'1 0.9
2015-Apr-28 21:30N 40°44' E 003°24'1 0.8
2015-Apr-28 20:33N 40°44' E 003°24'1 0.6
2015-Apr-28 19:33N 40°45' E 003°23'0 0.3
2015-Apr-28 18:33N 40°45' E 003°23'0 0.2
2015-Apr-28 17:33N 40°45' E 003°23'0 0.1
2015-Apr-28 16:18N 40°45' E 003°23'0 0.3
2015-Apr-28 15:24N 40°45' E 003°22'4 4.5
2015-Apr-28 14:28N 40°42' E 003°27'1 1.1
2015-Apr-28 13:31N 40°43' E 003°25'2 1.5
2015-Apr-28 12:25N 40°44' E 003°24'2 1.9
2015-Apr-28 11:10N 40°47' E 003°23'2 2.3
2015-Apr-28 10:28N 40°48' E 003°22'2 2.3
2015-Apr-28 09:28N 40°50' E 003°21'2 2.3
2015-Apr-28 08:28N 40°53' E 003°20'2 2.0
2015-Apr-28 07:28N 40°54' E 003°20'2 2.3
2015-Apr-28 06:25N 40°57' E 003°21'2 2.4
2015-Apr-28 05:31N 40°59' E 003°21'2 2.3
2015-Apr-28 04:29N 41°01' E 003°21'3 2.4
2015-Apr-28 03:19N 41°04' E 003°21'2 2.5
2015-Apr-28 02:22N 41°06' E 003°21'2 2.4
2015-Apr-28 01:32N 41°08' E 003°20'3 2.6
2015-Apr-28 00:32N 41°11' E 003°18'3 2.7
2015-Apr-27 23:27N 41°13' E 003°16'1 1.6
2015-Apr-27 22:32N 41°14' E 003°15'1 0.4
2015-Apr-27 20:32N 41°13' E 003°15'0 0.4
2015-Apr-27 19:32N 41°13' E 003°15'0 0.4
2015-Apr-27 18:32N 41°13' E 003°15'1 1.0
2015-Apr-27 17:32N 41°13' E 003°14'1 1.3
2015-Apr-27 16:32N 41°12' E 003°13'1 1.0
2015-Apr-27 15:32N 41°11' E 003°12'1 0.9
2015-Apr-27 14:33N 41°11' E 003°11'1 1.2
2015-Apr-27 13:33N 41°11' E 003°09'1 0.6
2015-Apr-27 12:33N 41°10' E 003°09'6 5.9
2015-Apr-27 11:33N 41°16' E 003°11'7 6.3
2015-Apr-27 10:28N 41°22' E 003°13'5 0.6
2015-Apr-27 02:31N 41°17' E 003°12'2 1.2
2015-Apr-27 01:07N 41°16' E 003°13'1 1.7
2015-Apr-27 00:28N 41°14' E 003°13'1 1.2
2015-Apr-26 23:31N 41°13' E 003°13'1 1.2
2015-Apr-26 22:31N 41°12' E 003°14'2 1.6
2015-Apr-26 21:13N 41°10' E 003°14'1 2.0
2015-Apr-26 20:31N 41°09' E 003°15'1 1.5
2015-Apr-26 19:31N 41°07' E 003°15'1 1.2
2015-Apr-26 18:25N 41°06' E 003°15'1 0.8
2015-Apr-26 17:31N 41°05' E 003°15'1 0.6
2015-Apr-26 16:31N 41°05' E 003°15'1 1.1
2015-Apr-26 15:31N 41°04' E 003°14'1 1.2
2015-Apr-26 14:31N 41°03' E 003°13'1 1.0
2015-Apr-26 13:25N 41°02' E 003°12'1 1.0
2015-Apr-26 12:31N 41°01' E 003°11'1 0.8
2015-Apr-26 11:31N 41°00' E 003°11'1 1.0
2015-Apr-26 10:31N 40°60' E 003°12'1 1.3
2015-Apr-26 09:25N 40°59' E 003°14'1 1.4
2015-Apr-26 08:31N 40°58' E 003°15'1 1.3
2015-Apr-26 07:31N 40°56' E 003°15'1 1.2
2015-Apr-26 06:31N 40°55' E 003°15'2 1.2
2015-Apr-26 05:13N 40°54' E 003°16'1 1.1
2015-Apr-26 04:25N 40°53' E 003°16'1 0.7
2015-Apr-26 03:31N 40°52' E 003°16'0 0.5
2015-Apr-26 02:31N 40°52' E 003°16'0 0.4
2015-Apr-26 01:25N 40°51' E 003°16'0 0.4
2015-Apr-26 00:31N 40°51' E 003°16'0 0.4
2015-Apr-25 23:25N 40°51' E 003°17'0 0.2
2015-Apr-25 22:25N 40°50' E 003°17'0 0.1
2015-Apr-25 21:16N 40°50' E 003°16'0 0.3
2015-Apr-25 20:31N 40°50' E 003°16'1 0.6
2015-Apr-25 19:25N 40°50' E 003°15'1 1.2
2015-Apr-25 18:31N 40°50' E 003°14'2 1.5
2015-Apr-25 17:19N 40°50' E 003°11'1 1.7
2015-Apr-25 16:31N 40°50' E 003°10'2 1.8
2015-Apr-25 15:31N 40°51' E 003°08'2 2.5
2015-Apr-25 14:33N 40°53' E 003°05'2 1.8
2015-Apr-25 13:16N 40°54' E 003°02'2 1.9
2015-Apr-25 12:28N 40°54' E 003°00'  

Dump ship's entire track history